CYSB

Sudbury Airport

Sudbury, , Canada
METAR CYSB 140500Z 31003KT 250V320 15SM BKN030 M16/M19 A3020 RMK SC6 SLP258
Observed Flight Rules
Nov-14 @ 05:00 UTC (15 minutes ago) Marginal Visual Flight Rules
Wind Visibility Clouds
310° at 3 knots 15 miles
  • Broken at 3,000' AGL
Temperatures Readings
Current -16°C / 3°F
Dewpoint -19°C / -2°F
Humidity 78%
Altimeter 30.2" Hg
Pressure 1025.8 hPa
Elevation 348
METAR CYSB 140500Z 31003KT 250V320 15SM BKN030 M16/M19 A3020 RMK SC6 SLP258
Observed Flight Rules
Nov-14 @ 05:00 UTC
(15 minutes ago)
MVFR
Wind Visibility
310° at 3 knots 15 miles
Clouds
  • Broken at 3,000' AGL
Temperature Dewpoint
-16°C / 3°F -19°C / -2°F
Humidity Altimeter Pressure
78% 30.2" Hg 1025.8 hPa